Historyczne dane pomiarowe

Dodano dane terminowe – wersja testowa.

Dane z okresu 1951-2019

Wersja bazy: 1.34 [2019-03-16, lista zmian], aktualizacja planowana na 2019-04-15

Dane meteo z obszaru Polski uzyskane na podstawie danych udostępnionych przez Instytut Meteorologii i Gospodarki Wodnej – Państwowy Instytut Badawczy.

 

Wybierz Datę:    

       

TemperaturaWilgotnośćWiatrCiśnienieOpadyŚniegCzas trwania zjawisk
 Stacja t tx tn tng RH VA  wxwx mslp ppp RRR   cm mm wxwxwxwxwxwxwx
1956-11-09 -5.1 -2.0 -9.4- 87.5- 1.7 1.0---- 0.0-- 5---------
1956-11-08 -4.4 0.6 -7.0- 92.3- 3.0 0.3---- 0.0-- 6---------
1956-11-07 0.3 0.6 -0.3-100.0- 8.0 1.7---- 1.7-- 7---------
1956-11-06 1.3 4.4 -0.2- 93.8- 6.7 5.0---- 8.4------------
1956-11-05 4.5 6.6 -1.9- 89.0- 8.0 3.7---- 3.3------------
1956-11-04 -0.5 4.8 -4.6- 85.5- 0.0 1.0---- 0.0------------
1956-11-03 -1.4 2.7 -4.0- 97.0- 4.7 2.0---- 0.0------------
1956-11-02 -0.5 1.4 -5.4- 97.5- 5.7 1.0---- 0.8------------
1956-11-01 -2.8 3.3-10.1- 89.8- 1.7 0.3---- 0.0------------
1956-10-31 -4.1 3.8 -6.9- 84.5- 3.3 4.7---- 0.0------------
1956-10-30 4.4 7.7 2.7- 95.0- 7.7 4.0---- 0.0------------
1956-10-29 4.0 4.8 2.0- 97.5- 7.7 4.3---- 9.4------------
1956-10-28 5.4 9.4 3.1- 97.5-- 3.0---- 17.6------------
1956-10-27 7.9 10.8 6.4-100.0- 5.3 0.3---- 3.0------------
1956-10-26 7.2 7.9 5.8-100.0- 8.0 1.3---- 2.2------------
1956-10-25 9.4 15.7 4.0- 91.0- 3.0 3.0---- 0.0------------
1956-10-24 10.5 18.2 4.6- 89.5- 2.7 1.3---- 0.0------------
1956-10-23 9.6 15.0 4.3- 90.8- 4.0 1.0---- 0.0------------
1956-10-22 12.3 19.4 6.6- 88.0- 0.0 1.3---- 0.0------------
1956-10-21 13.0 18.3 8.1- 88.8- 4.0 1.0---- 0.0------------
1956-10-20 12.4 14.8 9.9- 94.0- 7.7 0.7---- 0.0------------
1956-10-19 12.3 14.3 9.2- 93.5- 8.0 1.3---- 0.1------------
1956-10-18 10.1 13.8 4.4- 95.0- 7.7 1.7---- 3.7------------
1956-10-17 7.6 15.2 -0.4- 82.8- 0.0 1.7---- 0.0------------
1956-10-16 4.4 12.0 -1.7- 89.8- 0.0 0.0---- 0.0------------
1956-10-15 4.0 10.3 1.4- 99.0-- 0.7---- 0.0------------
1956-10-14 9.0 12.6 6.4- 87.0- 4.0 8.7---- 3.1------------
1956-10-13 10.1 11.6 6.7- 78.0- 8.0 4.0---- 0.0------------
1956-10-12 9.3 14.5 6.5- 80.5- 4.3 2.3---- 0.0------------
1956-10-11 6.5 11.4 0.6- 83.8- 3.0 1.0---- 0.0------------
1956-10-10 3.7 8.1 2.0- 82.5- 1.7 1.7---- 0.0------------
1956-10-09 6.7 9.8 1.7- 92.5- 8.0 1.3---- 1.3------------
1956-10-08 5.9 10.5 0.7- 82.8- 5.0 1.0---- 0.0------------
1956-10-07 6.0 9.2 4.7- 83.5- 5.3 4.3---- 0.2------------
1956-10-06 5.4 8.0 4.4- 94.5- 8.0 3.3---- 16.9------------
1956-10-05 9.2 16.0 6.3- 86.8- 5.0 1.7---- 2.3------------
1956-10-04 11.3 13.0 8.5- 93.5- 8.0 1.7---- 2.2------------
1956-10-03 14.5 19.7 12.3- 79.5- 6.7 2.3---- 1.2------------
1956-10-02 18.8 26.0 9.5- 67.5- 2.0 3.0---- 0.0------------
1956-10-01 17.1 26.0 8.6- 81.8- 0.7 0.7---- 0.0------------
1956-09-30 14.1 20.1 11.6- 87.3- 4.0 0.3---- 0.0------------
1956-09-29 16.4 22.3 12.1- 80.5- 3.7 2.0---- 0.0------------
1956-09-28 14.7 19.4 12.7- 79.5- 4.3 2.7---- 0.0------------
1956-09-27 16.4 23.0 12.5- 77.3- 2.7 3.0---- 0.0------------
1956-09-26 14.6 23.2 7.1- 67.0- 0.0 3.0---- 0.0------------
1956-09-25 12.9 22.3 3.6- 77.0- 0.7 3.0---- 0.0------------
1956-09-24 11.1 18.3 5.8- 71.3- 0.0 3.0---- 0.0------------
1956-09-23 11.8 20.6 6.6- 81.3- 0.0 1.3---- 0.0------------
1956-09-22 13.1 21.8 6.0- 79.0- 0.0 0.3---- 0.0------------
1956-09-21 11.3 19.4 3.1- 86.3- 0.0 0.3---- 0.0------------
1956-09-20 10.8 18.9 3.4- 79.5- 3.0 2.0---- 0.0------------
1956-09-19 8.1 16.1 0.7- 81.8- 0.7 0.7---- 0.0------------
1956-09-18 8.9 14.4 5.1- 89.3- 4.0 1.0---- 0.0------------
1956-09-17 8.7 11.8 6.9- 96.3- 6.7 1.7---- 11.8------------
1956-09-16 11.6 16.9 4.4- 79.5- 3.7 1.3---- 0.0------------
1956-09-15 10.6 16.9 5.1- 93.5- 4.0 1.3---- 0.0------------
1956-09-14 10.2 12.5 7.6- 91.0- 5.3 2.0---- 0.0------------
1956-09-13 9.9 14.4 7.7- 89.0- 6.0 3.0---- 8.4------------
1956-09-12 11.3 15.5 8.9- 90.3- 6.7 3.0---- 8.2------------
1956-09-11 16.0 19.1 14.6- 93.8- 6.0 3.3---- 4.0------------
2135.9 ms

 

Źródłem pochodzenia danych jest Instytut Meteorologii i Gospodarki Wodnej – Państwowy Instytut Badawczy. Dane Instytutu Meteorologii i Gospodarki Wodnej – Państwowego Instytutu Badawczego zostały przetworzone.

Dane źródłowe można odnaleźć na stronie https://dane.imgw.pl